sensor_id;sensor_type;location;lat;lon;timestamp;pressure;altitude;pressure_sealevel;temperature;humidity
74230;BME280;62589;12.568;99.958;2022-08-04T00:02:12;100697.00;;;33.32;52.57
74230;BME280;62589;12.568;99.958;2022-08-04T00:04:48;100694.22;;;33.32;52.94
74230;BME280;62589;12.568;99.958;2022-08-04T00:07:30;100699.38;;;33.34;53.21
74230;BME280;62589;12.568;99.958;2022-08-04T00:10:01;100700.97;;;33.35;52.92
74230;BME280;62589;12.568;99.958;2022-08-04T00:12:32;100705.34;;;33.36;53.15
74230;BME280;62589;12.568;99.958;2022-08-04T00:15:01;100700.19;;;33.38;52.97
74230;BME280;62589;12.568;99.958;2022-08-04T00:17:31;100702.97;;;33.38;51.82
74230;BME280;62589;12.568;99.958;2022-08-04T00:20:04;100707.75;;;33.37;51.22
74230;BME280;62589;12.568;99.958;2022-08-04T00:22:33;100710.94;;;33.39;51.91
74230;BME280;62589;12.568;99.958;2022-08-04T00:25:04;100708.16;;;33.39;52.25
74230;BME280;62589;12.568;99.958;2022-08-04T00:27:31;100710.94;;;33.43;51.58
74230;BME280;62589;12.568;99.958;2022-08-04T00:29:58;100713.34;;;33.44;51.98
74230;BME280;62589;12.568;99.958;2022-08-04T00:32:26;100713.72;;;33.46;52.19
74230;BME280;62589;12.568;99.958;2022-08-04T00:34:54;100711.72;;;33.47;52.03
74230;BME280;62589;12.568;99.958;2022-08-04T00:39:37;100709.25;;;33.17;52.63
74230;BME280;62589;12.568;99.958;2022-08-04T01:00:04;100724.91;;;33.71;52.63
74230;BME280;62589;12.568;99.958;2022-08-04T01:05:52;100723.78;;;33.79;52.64
74230;BME280;62589;12.568;99.958;2022-08-04T01:08:40;100722.19;;;33.82;52.71
74230;BME280;62589;12.568;99.958;2022-08-04T01:20:23;100717.81;;;33.92;51.75
74230;BME280;62589;12.568;99.958;2022-08-04T01:23:11;100715.41;;;33.94;51.84
74230;BME280;62589;12.568;99.958;2022-08-04T01:29:02;100708.25;;;33.96;51.28
74230;BME280;62589;12.568;99.958;2022-08-04T01:31:46;100715.81;;;33.96;51.11
74230;BME280;62589;12.568;99.958;2022-08-04T01:34:16;100705.88;;;33.95;51.34
74230;BME280;62589;12.568;99.958;2022-08-04T01:36:46;100715.41;;;33.94;51.37
74230;BME280;62589;12.568;99.958;2022-08-04T01:39:17;100713.03;;;33.96;50.79
74230;BME280;62589;12.568;99.958;2022-08-04T01:41:57;100715.03;;;33.95;50.71
74230;BME280;62589;12.568;99.958;2022-08-04T01:44:27;100719.41;;;33.93;50.66
74230;BME280;62589;12.568;99.958;2022-08-04T01:46:54;100713.03;;;33.92;50.06
74230;BME280;62589;12.568;99.958;2022-08-04T01:49:21;100712.22;;;33.92;50.12
74230;BME280;62589;12.568;99.958;2022-08-04T01:51:55;100707.88;;;33.94;49.83
74230;BME280;62589;12.568;99.958;2022-08-04T01:54:22;100706.66;;;33.95;50.09
74230;BME280;62589;12.568;99.958;2022-08-04T01:56:50;100715.81;;;33.96;50.05
74230;BME280;62589;12.568;99.958;2022-08-04T01:59:19;100713.84;;;33.96;50.41
74230;BME280;62589;12.568;99.958;2022-08-04T02:01:47;100714.25;;;33.98;51.21
74230;BME280;62589;12.568;99.958;2022-08-04T02:04:15;100715.03;;;34.02;51.09
74230;BME280;62589;12.568;99.958;2022-08-04T02:07:05;100714.66;;;34.04;50.96
74230;BME280;62589;12.568;99.958;2022-08-04T02:10:04;100711.06;;;34.07;50.70
74230;BME280;62589;12.568;99.958;2022-08-04T02:15:29;100717.03;;;34.27;49.93
74230;BME280;62589;12.568;99.958;2022-08-04T02:18:03;100715.81;;;34.21;50.73
74230;BME280;62589;12.568;99.958;2022-08-04T02:20:37;100724.19;;;34.24;49.83
74230;BME280;62589;12.568;99.958;2022-08-04T02:23:08;100719.44;;;34.28;50.17
74230;BME280;62589;12.568;99.958;2022-08-04T02:25:48;100725.00;;;34.35;50.51
74230;BME280;62589;12.568;99.958;2022-08-04T02:28:34;100728.19;;;34.37;50.46
74230;BME280;62589;12.568;99.958;2022-08-04T02:31:17;100730.56;;;34.46;50.11
74230;BME280;62589;12.568;99.958;2022-08-04T02:33:46;100733.75;;;34.48;49.89
74230;BME280;62589;12.568;99.958;2022-08-04T02:36:30;100738.09;;;34.56;50.29
74230;BME280;62589;12.568;99.958;2022-08-04T02:39:02;100745.28;;;34.61;50.22
74230;BME280;62589;12.568;99.958;2022-08-04T02:41:30;100744.09;;;34.65;50.00
74230;BME280;62589;12.568;99.958;2022-08-04T02:43:59;100737.31;;;34.66;49.27
74230;BME280;62589;12.568;99.958;2022-08-04T02:46:28;100737.69;;;34.68;48.29
74230;BME280;62589;12.568;99.958;2022-08-04T02:48:55;100742.06;;;34.73;48.14
74230;BME280;62589;12.568;99.958;2022-08-04T02:51:40;100737.69;;;34.79;48.12
74230;BME280;62589;12.568;99.958;2022-08-04T02:54:08;100736.91;;;34.82;47.72
74230;BME280;62589;12.568;99.958;2022-08-04T02:56:36;100739.28;;;34.87;47.97
74230;BME280;62589;12.568;99.958;2022-08-04T02:59:05;100749.59;;;34.94;47.89
74230;BME280;62589;12.568;99.958;2022-08-04T03:02:03;100738.41;;;35.04;47.72
74230;BME280;62589;12.568;99.958;2022-08-04T03:11:15;100742.72;;;35.20;47.77
74230;BME280;62589;12.568;99.958;2022-08-04T03:25:23;100743.06;;;35.39;47.73
74230;BME280;62589;12.568;99.958;2022-08-04T03:31:30;100735.09;;;35.38;47.17
74230;BME280;62589;12.568;99.958;2022-08-04T03:48:24;100723.34;;;35.71;45.82
74230;BME280;62589;12.568;99.958;2022-08-04T04:00:07;100710.84;;;35.94;46.45
74230;BME280;62589;12.568;99.958;2022-08-04T04:08:59;100695.16;;;36.03;45.17
74230;BME280;62589;12.568;99.958;2022-08-04T04:14:47;100689.88;;;36.16;46.13
74230;BME280;62589;12.568;99.958;2022-08-04T04:29:28;100684.13;;;36.37;44.64
74230;BME280;62589;12.568;99.958;2022-08-04T04:35:09;100682.31;;;36.58;44.03
74230;BME280;62589;12.568;99.958;2022-08-04T04:47:10;100677.88;;;36.94;43.88
74230;BME280;62589;12.568;99.958;2022-08-04T04:50:02;100681.91;;;36.93;42.35
74230;BME280;62589;12.568;99.958;2022-08-04T04:52:48;100676.63;;;36.99;41.77
74230;BME280;62589;12.568;99.958;2022-08-04T04:55:40;100673.69;;;37.09;42.48
74230;BME280;62589;12.568;99.958;2022-08-04T04:58:11;100675.28;;;37.10;42.25
74230;BME280;62589;12.568;99.958;2022-08-04T05:01:05;100668.78;;;37.17;40.91
74230;BME280;62589;12.568;99.958;2022-08-04T05:03:57;100667.06;;;37.27;41.74
74230;BME280;62589;12.568;99.958;2022-08-04T05:12:42;100651.91;;;37.51;41.09
74230;BME280;62589;12.568;99.958;2022-08-04T05:15:14;100642.78;;;37.47;40.32
74230;BME280;62589;12.568;99.958;2022-08-04T05:17:48;100644.50;;;37.64;40.41
74230;BME280;62589;12.568;99.958;2022-08-04T05:20:23;100641.19;;;37.73;40.36
74230;BME280;62589;12.568;99.958;2022-08-04T05:26:05;100636.50;;;37.90;39.44
74230;BME280;62589;12.568;99.958;2022-08-04T05:28:44;100625.97;;;37.97;39.38
74230;BME280;62589;12.568;99.958;2022-08-04T05:31:19;100627.47;;;38.02;39.38
74230;BME280;62589;12.568;99.958;2022-08-04T05:33:51;100615.75;;;38.07;39.42
74230;BME280;62589;12.568;99.958;2022-08-04T05:36:23;100616.28;;;38.02;38.35
74230;BME280;62589;12.568;99.958;2022-08-04T05:38:53;100606.19;;;38.04;39.17
74230;BME280;62589;12.568;99.958;2022-08-04T05:41:26;100604.09;;;38.12;38.94
74230;BME280;62589;12.568;99.958;2022-08-04T05:43:53;100596.13;;;38.07;38.89
74230;BME280;62589;12.568;99.958;2022-08-04T05:46:21;100599.22;;;38.16;39.48
74230;BME280;62589;12.568;99.958;2022-08-04T05:48:48;100588.78;;;38.16;38.41
74230;BME280;62589;12.568;99.958;2022-08-04T05:51:15;100594.25;;;38.24;39.13
74230;BME280;62589;12.568;99.958;2022-08-04T05:53:43;100597.69;;;38.31;39.47
74230;BME280;62589;12.568;99.958;2022-08-04T05:56:14;100596.47;;;38.32;38.08
74230;BME280;62589;12.568;99.958;2022-08-04T05:58:41;100592.53;;;38.30;37.96
74230;BME280;62589;12.568;99.958;2022-08-04T06:01:10;100588.44;;;38.34;38.38
74230;BME280;62589;12.568;99.958;2022-08-04T06:03:38;100571.91;;;38.40;38.32
74230;BME280;62589;12.568;99.958;2022-08-04T06:06:06;100578.72;;;38.39;38.10
74230;BME280;62589;12.568;99.958;2022-08-04T06:08:34;100559.88;;;38.39;38.32
74230;BME280;62589;12.568;99.958;2022-08-04T06:11:04;100562.63;;;38.43;37.75
74230;BME280;62589;12.568;99.958;2022-08-04T06:13:47;100549.47;;;38.40;38.52
74230;BME280;62589;12.568;99.958;2022-08-04T06:16:18;100546.66;;;38.40;37.91
74230;BME280;62589;12.568;99.958;2022-08-04T06:18:48;100539.41;;;38.42;37.76
74230;BME280;62589;12.568;99.958;2022-08-04T06:21:20;100542.19;;;38.42;38.32
74230;BME280;62589;12.568;99.958;2022-08-04T06:23:48;100538.44;;;38.49;38.35
74230;BME280;62589;12.568;99.958;2022-08-04T06:26:17;100529.59;;;38.50;38.86
74230;BME280;62589;12.568;99.958;2022-08-04T06:28:49;100521.53;;;38.53;38.43
74230;BME280;62589;12.568;99.958;2022-08-04T06:31:18;100520.69;;;38.56;38.83
74230;BME280;62589;12.568;99.958;2022-08-04T06:34:04;100509.03;;;38.57;38.25
74230;BME280;62589;12.568;99.958;2022-08-04T06:36:32;100507.75;;;38.62;38.70
74230;BME280;62589;12.568;99.958;2022-08-04T06:39:03;100505.03;;;38.58;38.99
74230;BME280;62589;12.568;99.958;2022-08-04T06:41:31;100503.38;;;38.61;38.97
74230;BME280;62589;12.568;99.958;2022-08-04T06:44:14;100498.63;;;38.58;38.86
74230;BME280;62589;12.568;99.958;2022-08-04T06:46:41;100495.81;;;38.58;38.45
74230;BME280;62589;12.568;99.958;2022-08-04T06:49:09;100493.44;;;38.56;38.90
74230;BME280;62589;12.568;99.958;2022-08-04T06:51:37;100479.47;;;38.53;38.34
74230;BME280;62589;12.568;99.958;2022-08-04T06:54:05;100476.66;;;38.53;38.40
74230;BME280;62589;12.568;99.958;2022-08-04T06:56:33;100478.31;;;38.50;38.60
74230;BME280;62589;12.568;99.958;2022-08-04T06:59:02;100477.53;;;38.49;38.64
74230;BME280;62589;12.568;99.958;2022-08-04T07:01:30;100468.94;;;38.40;37.92
74230;BME280;62589;12.568;99.958;2022-08-04T07:03:56;100472.09;;;38.42;37.85
74230;BME280;62589;12.568;99.958;2022-08-04T07:06:24;100475.25;;;38.44;37.39
74230;BME280;62589;12.568;99.958;2022-08-04T07:08:51;100473.31;;;38.41;38.58
74230;BME280;62589;12.568;99.958;2022-08-04T07:11:19;100464.47;;;38.43;39.18
74230;BME280;62589;12.568;99.958;2022-08-04T07:13:46;100457.63;;;38.44;38.74
74230;BME280;62589;12.568;99.958;2022-08-04T07:16:16;100456.84;;;38.43;38.77
74230;BME280;62589;12.568;99.958;2022-08-04T07:18:43;100456.47;;;38.41;37.89
74230;BME280;62589;12.568;99.958;2022-08-04T07:21:14;100455.34;;;38.39;37.31
74230;BME280;62589;12.568;99.958;2022-08-04T07:23:44;100456.06;;;38.43;38.33
74230;BME280;62589;12.568;99.958;2022-08-04T07:26:11;100448.50;;;38.40;38.22
74230;BME280;62589;12.568;99.958;2022-08-04T07:28:40;100445.63;;;38.43;37.90
74230;BME280;62589;12.568;99.958;2022-08-04T07:31:12;100438.78;;;38.44;37.58
74230;BME280;62589;12.568;99.958;2022-08-04T07:33:41;100442.72;;;38.47;37.53
74230;BME280;62589;12.568;99.958;2022-08-04T07:36:09;100440.63;;;38.51;37.86
74230;BME280;62589;12.568;99.958;2022-08-04T07:38:41;100447.34;;;38.57;37.79
74230;BME280;62589;12.568;99.958;2022-08-04T07:41:07;100432.00;;;38.62;37.94
74230;BME280;62589;12.568;99.958;2022-08-04T07:43:36;100435.94;;;38.64;37.06
74230;BME280;62589;12.568;99.958;2022-08-04T07:46:03;100427.34;;;38.71;36.84
74230;BME280;62589;12.568;99.958;2022-08-04T07:48:30;100427.88;;;38.82;35.66
74230;BME280;62589;12.568;99.958;2022-08-04T07:50:57;100431.91;;;38.81;34.19
74230;BME280;62589;12.568;99.958;2022-08-04T07:53:24;100433.41;;;38.86;35.09
74230;BME280;62589;12.568;99.958;2022-08-04T07:55:52;100426.81;;;38.93;35.80
74230;BME280;62589;12.568;99.958;2022-08-04T07:58:18;100415.06;;;38.98;36.08
74230;BME280;62589;12.568;99.958;2022-08-04T08:00:45;100414.63;;;38.99;36.52
74230;BME280;62589;12.568;99.958;2022-08-04T08:03:13;100405.81;;;39.01;37.56
74230;BME280;62589;12.568;99.958;2022-08-04T08:05:40;100408.97;;;39.03;38.20
74230;BME280;62589;12.568;99.958;2022-08-04T08:08:07;100406.50;;;39.05;38.68
74230;BME280;62589;12.568;99.958;2022-08-04T08:10:34;100400.53;;;39.03;38.78
74230;BME280;62589;12.568;99.958;2022-08-04T08:13:01;100387.28;;;39.03;38.68
74230;BME280;62589;12.568;99.958;2022-08-04T08:15:31;100394.63;;;38.97;39.81
74230;BME280;62589;12.568;99.958;2022-08-04T08:17:59;100390.69;;;38.95;40.18
74230;BME280;62589;12.568;99.958;2022-08-04T08:20:25;100390.84;;;38.88;39.90
74230;BME280;62589;12.568;99.958;2022-08-04T08:22:52;100388.16;;;38.84;40.63
74230;BME280;62589;12.568;99.958;2022-08-04T08:25:19;100379.03;;;38.80;40.59
74230;BME280;62589;12.568;99.958;2022-08-04T08:27:46;100392.28;;;38.79;40.80
74230;BME280;62589;12.568;99.958;2022-08-04T08:30:12;100383.88;;;38.79;39.51
74230;BME280;62589;12.568;99.958;2022-08-04T08:32:39;100379.22;;;38.73;37.12
74230;BME280;62589;12.568;99.958;2022-08-04T08:35:06;100373.50;;;38.76;36.96
74230;BME280;62589;12.568;99.958;2022-08-04T08:37:37;100369.91;;;38.76;37.34
74230;BME280;62589;12.568;99.958;2022-08-04T08:40:21;100363.09;;;38.77;35.83
74230;BME280;62589;12.568;99.958;2022-08-04T09:00:44;100363.94;;;38.90;36.24
74230;BME280;62589;12.568;99.958;2022-08-04T09:09:20;100364.22;;;38.79;35.99
74230;BME280;62589;12.568;99.958;2022-08-04T09:14:57;100352.66;;;38.77;36.89
74230;BME280;62589;12.568;99.958;2022-08-04T09:17:48;100350.09;;;38.83;36.88
74230;BME280;62589;12.568;99.958;2022-08-04T09:20:28;100345.38;;;38.80;36.96
74230;BME280;62589;12.568;99.958;2022-08-04T09:23:05;100341.41;;;38.77;37.08
74230;BME280;62589;12.568;99.958;2022-08-04T09:25:53;100329.75;;;38.79;37.52
74230;BME280;62589;12.568;99.958;2022-08-04T09:28:25;100332.56;;;38.79;37.58
74230;BME280;62589;12.568;99.958;2022-08-04T09:31:16;100328.00;;;38.85;37.03
74230;BME280;62589;12.568;99.958;2022-08-04T09:37:00;100310.03;;;38.82;36.29
74230;BME280;62589;12.568;99.958;2022-08-04T09:39:40;100316.59;;;38.76;36.81
74230;BME280;62589;12.568;99.958;2022-08-04T09:50:50;100316.91;;;38.65;34.98
74230;BME280;62589;12.568;99.958;2022-08-04T09:56:29;100318.34;;;38.70;35.29
74230;BME280;62589;12.568;99.958;2022-08-04T09:59:28;100323.28;;;38.66;35.40
74230;BME280;62589;12.568;99.958;2022-08-04T10:02:02;100321.81;;;38.61;35.05
74230;BME280;62589;12.568;99.958;2022-08-04T10:04:34;100329.56;;;38.54;34.10
74230;BME280;62589;12.568;99.958;2022-08-04T10:07:11;100333.59;;;38.36;34.00
74230;BME280;62589;12.568;99.958;2022-08-04T10:24:47;100352.50;;;38.16;35.03
74230;BME280;62589;12.568;99.958;2022-08-04T10:30:06;100356.97;;;37.94;34.65
74230;BME280;62589;12.568;99.958;2022-08-04T10:35:32;100363.41;;;37.74;35.75
74230;BME280;62589;12.568;99.958;2022-08-04T10:41:12;100370.59;;;37.75;36.31
74230;BME280;62589;12.568;99.958;2022-08-04T10:46:46;100390.06;;;37.82;36.65
74230;BME280;62589;12.568;99.958;2022-08-04T10:57:06;100386.16;;;37.76;38.44
74230;BME280;62589;12.568;99.958;2022-08-04T11:00:00;100389.16;;;37.86;38.20
74230;BME280;62589;12.568;99.958;2022-08-04T11:11:12;100418.84;;;37.83;39.35
74230;BME280;62589;12.568;99.958;2022-08-04T11:13:44;100428.03;;;37.83;39.18
74230;BME280;62589;12.568;99.958;2022-08-04T11:16:25;100438.44;;;37.83;39.23
74230;BME280;62589;12.568;99.958;2022-08-04T11:21:46;100445.00;;;37.76;39.83
74230;BME280;62589;12.568;99.958;2022-08-04T11:24:27;100450.19;;;37.78;40.21
74230;BME280;62589;12.568;99.958;2022-08-04T11:30:06;100461.44;;;37.74;40.70
74230;BME280;62589;12.568;99.958;2022-08-04T11:38:41;100474.78;;;37.67;40.93
74230;BME280;62589;12.568;99.958;2022-08-04T11:41:11;100485.69;;;37.61;40.90
74230;BME280;62589;12.568;99.958;2022-08-04T11:43:55;100495.00;;;37.55;40.54
74230;BME280;62589;12.568;99.958;2022-08-04T11:51:58;100504.81;;;37.43;40.43
74230;BME280;62589;12.568;99.958;2022-08-04T11:54:25;100510.06;;;37.41;39.92
74230;BME280;62589;12.568;99.958;2022-08-04T11:56:53;100516.16;;;37.36;40.15
74230;BME280;62589;12.568;99.958;2022-08-04T11:59:22;100527.81;;;37.31;40.43
74230;BME280;62589;12.568;99.958;2022-08-04T12:02:18;100534.66;;;37.30;40.38
74230;BME280;62589;12.568;99.958;2022-08-04T12:05:02;100540.44;;;37.15;40.02
74230;BME280;62589;12.568;99.958;2022-08-04T12:13:37;100554.06;;;36.87;40.97
74230;BME280;62589;12.568;99.958;2022-08-04T12:19:12;100563.84;;;36.75;41.21
74230;BME280;62589;12.568;99.958;2022-08-04T12:21:49;100571.44;;;36.74;41.17
74230;BME280;62589;12.568;99.958;2022-08-04T12:24:27;100570.25;;;36.72;41.23
74230;BME280;62589;12.568;99.958;2022-08-04T12:27:02;100574.28;;;36.67;41.35
74230;BME280;62589;12.568;99.958;2022-08-04T12:29:33;100566.78;;;36.61;41.39
74230;BME280;62589;12.568;99.958;2022-08-04T12:32:11;100567.97;;;36.60;41.47
74230;BME280;62589;12.568;99.958;2022-08-04T12:34:42;100577.69;;;36.52;41.32
74230;BME280;62589;12.568;99.958;2022-08-04T12:37:37;100582.16;;;36.45;41.10
74230;BME280;62589;12.568;99.958;2022-08-04T12:40:13;100577.50;;;36.35;41.40
74230;BME280;62589;12.568;99.958;2022-08-04T12:42:51;100574.78;;;36.28;42.23
74230;BME280;62589;12.568;99.958;2022-08-04T12:45:21;100569.53;;;36.34;41.62
74230;BME280;62589;12.568;99.958;2022-08-04T12:47:51;100575.19;;;36.27;42.04
74230;BME280;62589;12.568;99.958;2022-08-04T12:50:18;100568.38;;;36.28;41.67
74230;BME280;62589;12.568;99.958;2022-08-04T12:52:55;100588.78;;;36.21;41.88
74230;BME280;62589;12.568;99.958;2022-08-04T12:55:25;100583.22;;;36.17;42.14
74230;BME280;62589;12.568;99.958;2022-08-04T12:57:52;100589.25;;;36.16;42.25
74230;BME280;62589;12.568;99.958;2022-08-04T13:00:28;100594.06;;;36.15;42.14
74230;BME280;62589;12.568;99.958;2022-08-04T13:03:04;100594.84;;;36.16;42.17
74230;BME280;62589;12.568;99.958;2022-08-04T13:05:32;100596.41;;;36.17;42.54
74230;BME280;62589;12.568;99.958;2022-08-04T13:08:00;100604.97;;;36.03;42.08
74230;BME280;62589;12.568;99.958;2022-08-04T13:10:29;100603.81;;;35.97;42.19
74230;BME280;62589;12.568;99.958;2022-08-04T13:12:59;100606.59;;;35.97;42.78
74230;BME280;62589;12.568;99.958;2022-08-04T13:15:27;100610.16;;;36.01;42.56
74230;BME280;62589;12.568;99.958;2022-08-04T13:18:13;100613.72;;;36.05;42.72
74230;BME280;62589;12.568;99.958;2022-08-04T13:20:40;100622.94;;;36.02;43.12
74230;BME280;62589;12.568;99.958;2022-08-04T13:23:11;100625.38;;;35.96;42.89
74230;BME280;62589;12.568;99.958;2022-08-04T13:25:50;100619.88;;;35.89;42.91
74230;BME280;62589;12.568;99.958;2022-08-04T13:28:25;100624.66;;;35.89;43.21
74230;BME280;62589;12.568;99.958;2022-08-04T13:30:55;100627.84;;;35.91;43.13
74230;BME280;62589;12.568;99.958;2022-08-04T13:33:39;100630.22;;;35.92;43.09
74230;BME280;62589;12.568;99.958;2022-08-04T13:36:07;100622.34;;;35.76;43.07
74230;BME280;62589;12.568;99.958;2022-08-04T13:38:36;100627.94;;;35.76;43.21
74230;BME280;62589;12.568;99.958;2022-08-04T13:41:05;100622.78;;;35.71;43.04
74230;BME280;62589;12.568;99.958;2022-08-04T13:43:39;100638.91;;;35.53;43.11
74230;BME280;62589;12.568;99.958;2022-08-04T13:46:13;100635.22;;;35.60;43.32
74230;BME280;62589;12.568;99.958;2022-08-04T13:48:42;100638.81;;;35.64;43.50
74230;BME280;62589;12.568;99.958;2022-08-04T13:51:10;100637.56;;;35.68;43.28
74230;BME280;62589;12.568;99.958;2022-08-04T13:53:39;100644.75;;;35.69;43.42
74230;BME280;62589;12.568;99.958;2022-08-04T13:56:08;100658.72;;;35.69;43.50
74230;BME280;62589;12.568;99.958;2022-08-04T13:58:40;100657.91;;;35.69;43.60
74230;BME280;62589;12.568;99.958;2022-08-04T14:01:18;100663.47;;;35.72;43.83
74230;BME280;62589;12.568;99.958;2022-08-04T14:03:57;100662.28;;;35.73;43.77
74230;BME280;62589;12.568;99.958;2022-08-04T14:06:34;100675.84;;;35.75;43.47
74230;BME280;62589;12.568;99.958;2022-08-04T14:09:15;100675.06;;;35.71;43.74
74230;BME280;62589;12.568;99.958;2022-08-04T14:11:50;100680.66;;;35.71;43.59
74230;BME280;62589;12.568;99.958;2022-08-04T14:14:24;100675.84;;;35.71;43.49
74230;BME280;62589;12.568;99.958;2022-08-04T14:17:08;100682.66;;;35.70;43.63
74230;BME280;62589;12.568;99.958;2022-08-04T14:19:55;100698.59;;;35.73;43.48
74230;BME280;62589;12.568;99.958;2022-08-04T14:22:39;100698.59;;;35.73;43.45
74230;BME280;62589;12.568;99.958;2022-08-04T14:25:12;100718.97;;;35.70;43.83
74230;BME280;62589;12.568;99.958;2022-08-04T14:27:41;100729.25;;;35.84;43.37
74230;BME280;62589;12.568;99.958;2022-08-04T14:30:36;100726.88;;;35.75;43.34
74230;BME280;62589;12.568;99.958;2022-08-04T14:33:08;100724.53;;;35.70;43.63
74230;BME280;62589;12.568;99.958;2022-08-04T14:35:35;100731.72;;;35.71;43.41
74230;BME280;62589;12.568;99.958;2022-08-04T14:38:10;100731.75;;;35.68;43.31
74230;BME280;62589;12.568;99.958;2022-08-04T14:40:37;100729.28;;;35.80;43.24
74230;BME280;62589;12.568;99.958;2022-08-04T14:43:05;100742.09;;;35.71;43.35
74230;BME280;62589;12.568;99.958;2022-08-04T14:45:39;100751.69;;;35.66;43.70
74230;BME280;62589;12.568;99.958;2022-08-04T14:48:09;100761.66;;;35.67;43.16
74230;BME280;62589;12.568;99.958;2022-08-04T14:50:44;100763.28;;;35.65;43.24
74230;BME280;62589;12.568;99.958;2022-08-04T14:53:17;100766.88;;;35.65;43.61
74230;BME280;62589;12.568;99.958;2022-08-04T14:55:52;100764.88;;;35.62;43.21
74230;BME280;62589;12.568;99.958;2022-08-04T14:58:28;100774.47;;;35.61;43.32
74230;BME280;62589;12.568;99.958;2022-08-04T15:01:00;100770.06;;;35.60;43.25
74230;BME280;62589;12.568;99.958;2022-08-04T15:03:28;100767.28;;;35.60;42.86
74230;BME280;62589;12.568;99.958;2022-08-04T15:05:56;100770.47;;;35.59;42.99
74230;BME280;62589;12.568;99.958;2022-08-04T15:08:24;100774.06;;;35.59;43.29
74230;BME280;62589;12.568;99.958;2022-08-04T15:10:51;100757.72;;;35.58;43.32
74230;BME280;62589;12.568;99.958;2022-08-04T15:13:24;100770.13;;;35.53;42.28
74230;BME280;62589;12.568;99.958;2022-08-04T15:15:51;100766.16;;;35.47;42.52
74230;BME280;62589;12.568;99.958;2022-08-04T15:18:18;100766.16;;;35.47;42.42
74230;BME280;62589;12.568;99.958;2022-08-04T15:20:46;100761.38;;;35.44;42.68
74230;BME280;62589;12.568;99.958;2022-08-04T15:23:12;100773.34;;;35.44;42.89
74230;BME280;62589;12.568;99.958;2022-08-04T15:25:42;100751.44;;;35.43;42.88
74230;BME280;62589;12.568;99.958;2022-08-04T15:28:14;100755.41;;;35.42;43.08
74230;BME280;62589;12.568;99.958;2022-08-04T15:30:43;100756.63;;;35.41;43.04
74230;BME280;62589;12.568;99.958;2022-08-04T15:33:12;100761.47;;;35.30;42.72
74230;BME280;62589;12.568;99.958;2022-08-04T15:35:43;100766.25;;;35.22;42.80
74230;BME280;62589;12.568;99.958;2022-08-04T15:38:26;100770.25;;;35.21;43.15
74230;BME280;62589;12.568;99.958;2022-08-04T15:41:01;100768.25;;;35.32;42.83
74230;BME280;62589;12.568;99.958;2022-08-04T15:49:43;100773.81;;;35.22;43.43
74230;BME280;62589;12.568;99.958;2022-08-04T15:52:12;100767.44;;;35.21;43.25
74230;BME280;62589;12.568;99.958;2022-08-04T15:54:41;100767.44;;;35.21;43.14
74230;BME280;62589;12.568;99.958;2022-08-04T15:57:08;100761.47;;;35.19;43.03
74230;BME280;62589;12.568;99.958;2022-08-04T16:02:35;100756.69;;;35.20;42.95
74230;BME280;62589;12.568;99.958;2022-08-04T16:05:29;100748.72;;;35.18;43.31
74230;BME280;62589;12.568;99.958;2022-08-04T16:08:11;100744.78;;;35.12;43.40
74230;BME280;62589;12.568;99.958;2022-08-04T16:10:41;100746.38;;;35.09;42.96
74230;BME280;62589;12.568;99.958;2022-08-04T16:13:09;100749.91;;;35.13;43.50
74230;BME280;62589;12.568;99.958;2022-08-04T16:15:53;100750.31;;;35.15;43.33
74230;BME280;62589;12.568;99.958;2022-08-04T16:18:40;100763.84;;;35.21;43.50
74230;BME280;62589;12.568;99.958;2022-08-04T16:21:20;100754.31;;;35.14;44.00
74230;BME280;62589;12.568;99.958;2022-08-04T16:23:55;100747.97;;;35.10;43.52
74230;BME280;62589;12.568;99.958;2022-08-04T16:26:44;100747.94;;;35.14;43.65
74230;BME280;62589;12.568;99.958;2022-08-04T16:29:24;100747.16;;;35.10;43.62
74230;BME280;62589;12.568;99.958;2022-08-04T16:32:21;100755.16;;;35.08;43.19
74230;BME280;62589;12.568;99.958;2022-08-04T16:35:03;100750.78;;;35.03;43.66
74230;BME280;62589;12.568;99.958;2022-08-04T16:37:42;100751.56;;;35.04;43.58
74230;BME280;62589;12.568;99.958;2022-08-04T16:40:29;100734.81;;;35.07;43.72
74230;BME280;62589;12.568;99.958;2022-08-04T16:43:13;100734.03;;;35.03;43.98
74230;BME280;62589;12.568;99.958;2022-08-04T16:45:50;100730.44;;;34.99;43.49
74230;BME280;62589;12.568;99.958;2022-08-04T16:48:21;100729.25;;;35.00;43.89
74230;BME280;62589;12.568;99.958;2022-08-04T16:51:09;100730.06;;;35.01;44.07
74230;BME280;62589;12.568;99.958;2022-08-04T16:53:44;100732.03;;;35.00;44.18
74230;BME280;62589;12.568;99.958;2022-08-04T16:56:14;100729.28;;;34.93;43.69
74230;BME280;62589;12.568;99.958;2022-08-04T16:58:43;100736.84;;;34.93;43.60
74230;BME280;62589;12.568;99.958;2022-08-04T17:01:14;100744.84;;;34.91;43.77
74230;BME280;62589;12.568;99.958;2022-08-04T17:03:51;100744.00;;;34.94;44.35
74230;BME280;62589;12.568;99.958;2022-08-04T17:06:18;100738.06;;;34.92;43.58
74230;BME280;62589;12.568;99.958;2022-08-04T17:08:44;100729.69;;;34.92;43.88
74230;BME280;62589;12.568;99.958;2022-08-04T17:11:14;100728.91;;;34.91;43.86
74230;BME280;62589;12.568;99.958;2022-08-04T17:13:44;100726.13;;;34.91;44.28
74230;BME280;62589;12.568;99.958;2022-08-04T17:16:15;100717.31;;;34.93;44.16
74230;BME280;62589;12.568;99.958;2022-08-04T17:18:49;100717.72;;;34.95;44.33
74230;BME280;62589;12.568;99.958;2022-08-04T17:21:21;100710.13;;;34.95;44.37